PWSweather.com
Personal Weather Stations
Station Observations
AVONCOLORA
Naval Air Station Pensacola, Pensacola, FL 32507

Naval Air Station PensacolaPensacola, FL 32507

Lat: 30.33417, Lon: -87.355

Elevation: 21

Station Type: Davis Vantage View 2012

http://InternetVail.Com

Latest ConditionsUpdated 5:00:00 PM CST Sunday, Jan 19, 2020
Currently Today's Max Today's Min Today's Average
Temperature 51.8°F11.0°C 67.2°F19.6°C 49.4°F9.7°C 57.0°F13.9°C
Dew Point 27.0°F-2.8°C 66.9°F19.4°C 26.3°F-3.2°C 45.7°F7.6°C
Winds 5.0 mph NE8.0 kmh NE 13.0 mph -20.9 kmh - - 5.2 mph 8.4 kmh
Wind Gusts 31.0 mph49.9 kmh 31.0 mph49.9 kmh - -
Humidity 38% 99% 33% 70%
Pressure 30.19 in1022.4 mb 30.22 in1023.4 mb 30.03 in1016.9 mb -
Hour Temp Dew Point Humidity Winds Wind Gusts Pressure Precip Precip Rate Daily Precip Total
05:00 PM 51.8°F11.0°C 27.0°F-2.8°C 38% 5.0 mph NE8.0 kmh NE 31.0 mph49.9 kmh 30.19 in1022.4 mb 0.00 in0.0 mm 0.00 in0.0 mm 0.00 in0.0 mm
04:50 PM 52.4°F11.3°C 26.8°F-2.9°C 37% 5.0 mph N8.0 kmh N 31.0 mph49.9 kmh 30.19 in1022.4 mb 0.00 in0.0 mm 0.00 in0.0 mm 0.00 in0.0 mm
04:40 PM 52.9°F11.6°C 26.6°F-3.0°C 36% 3.0 mph NNW4.8 kmh NNW 31.0 mph49.9 kmh 30.18 in1022.0 mb 0.00 in0.0 mm 0.00 in0.0 mm 0.00 in0.0 mm
04:30 PM 53.5°F11.9°C 26.5°F-3.1°C 35% 2.0 mph NE3.2 kmh NE 31.0 mph49.9 kmh 30.18 in1022.0 mb 0.00 in0.0 mm 0.00 in0.0 mm 0.00 in0.0 mm
04:20 PM 54.2°F12.3°C 26.4°F-3.1°C 34% 5.0 mph ENE8.0 kmh ENE 31.0 mph49.9 kmh 30.17 in1021.7 mb 0.00 in0.0 mm 0.00 in0.0 mm 0.00 in0.0 mm
04:10 PM 55.0°F12.8°C 26.4°F-3.1°C 33% 4.0 mph NNE6.4 kmh NNE 31.0 mph49.9 kmh 30.17 in1021.7 mb 0.00 in0.0 mm 0.00 in0.0 mm 0.00 in0.0 mm
04:00 PM 55.3°F12.9°C 26.6°F-3.0°C 33% 4.0 mph N6.4 kmh N 31.0 mph49.9 kmh 30.17 in1021.7 mb 0.00 in0.0 mm 0.00 in0.0 mm 0.00 in0.0 mm
03:50 PM 54.5°F12.5°C 26.7°F-2.9°C 34% 4.0 mph NNE6.4 kmh NNE 31.0 mph49.9 kmh 30.17 in1021.7 mb 0.00 in0.0 mm 0.00 in0.0 mm 0.00 in0.0 mm
03:40 PM 54.8°F12.7°C 28.3°F-2.1°C 36% 5.0 mph NNE8.0 kmh NNE 31.0 mph49.9 kmh 30.16 in1021.3 mb 0.00 in0.0 mm 0.00 in0.0 mm 0.00 in0.0 mm
03:20 PM 55.6°F13.1°C 27.6°F-2.4°C 34% 7.0 mph NE11.3 kmh NE 31.0 mph49.9 kmh 30.15 in1021.0 mb 0.00 in0.0 mm 0.00 in0.0 mm 0.00 in0.0 mm
03:10 PM 55.7°F13.2°C 29.1°F-1.6°C 36% 5.0 mph N8.0 kmh N 31.0 mph49.9 kmh 30.15 in1021.0 mb 0.00 in0.0 mm 0.00 in0.0 mm 0.00 in0.0 mm
03:00 PM 54.4°F12.4°C 28.6°F-1.9°C 37% 4.0 mph W6.4 kmh W 31.0 mph49.9 kmh 30.15 in1021.0 mb 0.00 in0.0 mm 0.00 in0.0 mm 0.00 in0.0 mm
02:50 PM 53.7°F12.1°C 26.7°F-2.9°C 35% 4.0 mph NE6.4 kmh NE 31.0 mph49.9 kmh 30.16 in1021.3 mb 0.00 in0.0 mm 0.00 in0.0 mm 0.00 in0.0 mm
02:40 PM 53.4°F11.9°C 30.2°F-1.0°C 41% 5.0 mph NE8.0 kmh NE 31.0 mph49.9 kmh 30.15 in1021.0 mb 0.00 in0.0 mm 0.00 in0.0 mm 0.00 in0.0 mm
02:30 PM 52.7°F11.5°C 29.6°F-1.3°C 41% 3.0 mph ENE4.8 kmh ENE 31.0 mph49.9 kmh 30.16 in1021.3 mb 0.00 in0.0 mm 0.00 in0.0 mm 0.00 in0.0 mm
02:20 PM 53.0°F11.7°C 29.3°F-1.5°C 40% 7.0 mph ENE11.3 kmh ENE 31.0 mph49.9 kmh 30.15 in1021.0 mb 0.00 in0.0 mm 0.00 in0.0 mm 0.00 in0.0 mm
02:10 PM 52.1°F11.2°C 27.9°F-2.3°C 39% 4.0 mph NE6.4 kmh NE 31.0 mph49.9 kmh 30.16 in1021.3 mb 0.00 in0.0 mm 0.00 in0.0 mm 0.00 in0.0 mm
02:00 PM 52.0°F11.1°C 27.1°F-2.7°C 38% 6.0 mph NE9.7 kmh NE 31.0 mph49.9 kmh 30.16 in1021.3 mb 0.00 in0.0 mm 0.00 in0.0 mm 0.00 in0.0 mm
01:50 PM 51.8°F11.0°C 27.0°F-2.8°C 38% 4.0 mph NE6.4 kmh NE 31.0 mph49.9 kmh 30.16 in1021.3 mb 0.00 in0.0 mm 0.00 in0.0 mm 0.00 in0.0 mm
01:40 PM 51.8°F11.0°C 26.3°F-3.2°C 37% 4.0 mph NNE6.4 kmh NNE 31.0 mph49.9 kmh 30.16 in1021.3 mb 0.00 in0.0 mm 0.00 in0.0 mm 0.00 in0.0 mm
01:30 PM 52.3°F11.3°C 28.0°F-2.2°C 39% 10.0 mph E16.1 kmh E 31.0 mph49.9 kmh 30.16 in1021.3 mb 0.00 in0.0 mm 0.00 in0.0 mm 0.00 in0.0 mm
01:20 PM 52.3°F11.3°C 31.0°F-0.6°C 44% 4.0 mph NE6.4 kmh NE 31.0 mph49.9 kmh 30.16 in1021.3 mb 0.00 in0.0 mm 0.00 in0.0 mm 0.00 in0.0 mm
01:10 PM 52.5°F11.4°C 33.3°F0.7°C 48% 7.0 mph ESE11.3 kmh ESE 31.0 mph49.9 kmh 30.17 in1021.7 mb 0.00 in0.0 mm 0.00 in0.0 mm 0.00 in0.0 mm
01:00 PM 52.2°F11.2°C 31.5°F-0.3°C 45% 8.0 mph NE12.9 kmh NE 31.0 mph49.9 kmh 30.18 in1022.0 mb 0.00 in0.0 mm 0.00 in0.0 mm 0.00 in0.0 mm
12:50 PM 51.9°F11.1°C 29.5°F-1.4°C 42% 9.0 mph ENE14.5 kmh ENE 31.0 mph49.9 kmh 30.18 in1022.0 mb 0.00 in0.0 mm 0.00 in0.0 mm 0.00 in0.0 mm
12:40 PM 51.8°F11.0°C 28.2°F-2.1°C 40% 4.0 mph NE6.4 kmh NE 31.0 mph49.9 kmh 30.18 in1022.0 mb 0.00 in0.0 mm 0.00 in0.0 mm 0.00 in0.0 mm
12:30 PM 51.3°F10.7°C 27.8°F-2.3°C 40% 11.0 mph ENE17.7 kmh ENE 24.0 mph38.6 kmh 30.18 in1022.0 mb 0.00 in0.0 mm 0.00 in0.0 mm 0.00 in0.0 mm
12:20 PM 52.1°F11.2°C 30.2°F-1.0°C 43% 11.0 mph E17.7 kmh E 24.0 mph38.6 kmh 30.18 in1022.0 mb 0.00 in0.0 mm 0.00 in0.0 mm 0.00 in0.0 mm
12:10 PM 51.9°F11.1°C 31.7°F-0.2°C 46% 12.0 mph NNE19.3 kmh NNE 24.0 mph38.6 kmh 30.18 in1022.0 mb 0.00 in0.0 mm 0.00 in0.0 mm 0.00 in0.0 mm
12:00 PM 52.2°F11.2°C 33.1°F0.6°C 48% 9.0 mph NE14.5 kmh NE 24.0 mph38.6 kmh 30.19 in1022.4 mb 0.00 in0.0 mm 0.00 in0.0 mm 0.00 in0.0 mm
11:50 AM 51.9°F11.1°C 32.8°F0.4°C 48% 4.0 mph NE6.4 kmh NE 24.0 mph38.6 kmh 30.20 in1022.7 mb 0.00 in0.0 mm 0.00 in0.0 mm 0.00 in0.0 mm
11:40 AM 51.5°F10.8°C 32.4°F0.2°C 48% 3.0 mph NE4.8 kmh NE 24.0 mph38.6 kmh 30.20 in1022.7 mb 0.00 in0.0 mm 0.00 in0.0 mm 0.00 in0.0 mm
11:30 AM 50.7°F10.4°C 31.7°F-0.2°C 48% 9.0 mph ESE14.5 kmh ESE 24.0 mph38.6 kmh 30.20 in1022.7 mb 0.00 in0.0 mm 0.00 in0.0 mm 0.00 in0.0 mm
11:20 AM 50.4°F10.2°C 32.9°F0.5°C 51% 9.0 mph NE14.5 kmh NE 24.0 mph38.6 kmh 30.20 in1022.7 mb 0.00 in0.0 mm 0.00 in0.0 mm 0.00 in0.0 mm
11:10 AM 50.3°F10.2°C 33.8°F1.0°C 53% 6.0 mph ESE9.7 kmh ESE 24.0 mph38.6 kmh 30.20 in1022.7 mb 0.00 in0.0 mm 0.00 in0.0 mm 0.00 in0.0 mm
11:00 AM 50.4°F10.2°C 32.4°F0.2°C 50% 11.0 mph NE17.7 kmh NE 24.0 mph38.6 kmh 30.20 in1022.7 mb 0.00 in0.0 mm 0.00 in0.0 mm 0.00 in0.0 mm
10:50 AM 49.9°F9.9°C 31.0°F-0.6°C 48% 7.0 mph ENE11.3 kmh ENE 24.0 mph38.6 kmh 30.21 in1023.0 mb 0.00 in0.0 mm 0.00 in0.0 mm 0.00 in0.0 mm
10:40 AM 49.7°F9.8°C 31.8°F-0.1°C 50% 7.0 mph NE11.3 kmh NE 24.0 mph38.6 kmh 30.21 in1023.0 mb 0.00 in0.0 mm 0.00 in0.0 mm 0.00 in0.0 mm
10:30 AM 49.4°F9.7°C 31.5°F-0.3°C 50% 10.0 mph SE16.1 kmh SE 24.0 mph38.6 kmh 30.22 in1023.4 mb 0.00 in0.0 mm 0.00 in0.0 mm 0.00 in0.0 mm
10:20 AM 49.4°F9.7°C 32.0°F0.0°C 51% 10.0 mph E16.1 kmh E 24.0 mph38.6 kmh 30.22 in1023.4 mb 0.00 in0.0 mm 0.00 in0.0 mm 0.00 in0.0 mm
10:10 AM 49.5°F9.7°C 31.6°F-0.2°C 50% 13.0 mph E20.9 kmh E 24.0 mph38.6 kmh 30.22 in1023.4 mb 0.00 in0.0 mm 0.00 in0.0 mm 0.00 in0.0 mm
10:00 AM 49.7°F9.8°C 32.3°F0.2°C 51% 12.0 mph NE19.3 kmh NE 24.0 mph38.6 kmh 30.22 in1023.4 mb 0.00 in0.0 mm 0.00 in0.0 mm 0.00 in0.0 mm
09:50 AM 50.0°F10.0°C 34.0°F1.1°C 54% 11.0 mph ESE17.7 kmh ESE 24.0 mph38.6 kmh 30.22 in1023.4 mb 0.00 in0.0 mm 0.00 in0.0 mm 0.00 in0.0 mm
09:40 AM 50.3°F10.2°C 38.2°F3.4°C 63% 6.0 mph N9.7 kmh N 21.0 mph33.8 kmh 30.22 in1023.4 mb 0.00 in0.0 mm 0.00 in0.0 mm 0.00 in0.0 mm
09:30 AM 50.7°F10.4°C 40.1°F4.5°C 67% 8.0 mph NE12.9 kmh NE 21.0 mph33.8 kmh 30.22 in1023.4 mb 0.00 in0.0 mm 0.00 in0.0 mm 0.00 in0.0 mm
09:20 AM 50.9°F10.5°C 39.5°F4.2°C 65% 11.0 mph SE17.7 kmh SE 21.0 mph33.8 kmh 30.20 in1022.7 mb 0.00 in0.0 mm 0.00 in0.0 mm 0.00 in0.0 mm
09:10 AM 51.2°F10.7°C 38.6°F3.7°C 62% 4.0 mph NNE6.4 kmh NNE 21.0 mph33.8 kmh 30.20 in1022.7 mb 0.00 in0.0 mm 0.00 in0.0 mm 0.00 in0.0 mm
09:00 AM 51.4°F10.8°C 38.4°F3.6°C 61% 12.0 mph ESE19.3 kmh ESE 19.0 mph30.6 kmh 30.20 in1022.7 mb 0.00 in0.0 mm 0.00 in0.0 mm 0.00 in0.0 mm
08:50 AM 51.6°F10.9°C 39.8°F4.3°C 64% 5.0 mph NNE8.0 kmh NNE 19.0 mph30.6 kmh 30.19 in1022.4 mb 0.00 in0.0 mm 0.00 in0.0 mm 0.00 in0.0 mm
08:40 AM 52.0°F11.1°C 41.4°F5.2°C 67% 11.0 mph ESE17.7 kmh ESE 19.0 mph30.6 kmh 30.19 in1022.4 mb 0.00 in0.0 mm 0.00 in0.0 mm 0.00 in0.0 mm
08:30 AM 52.5°F11.4°C 45.5°F7.5°C 77% 6.0 mph NE9.7 kmh NE 19.0 mph30.6 kmh 30.18 in1022.0 mb 0.00 in0.0 mm 0.00 in0.0 mm 0.00 in0.0 mm
08:20 AM 52.8°F11.6°C 47.8°F8.8°C 83% 10.0 mph NE16.1 kmh NE 19.0 mph30.6 kmh 30.17 in1021.7 mb 0.00 in0.0 mm 0.00 in0.0 mm 0.00 in0.0 mm
08:10 AM 53.0°F11.7°C 48.3°F9.1°C 84% 4.0 mph NE6.4 kmh NE 19.0 mph30.6 kmh 30.17 in1021.7 mb 0.00 in0.0 mm 0.00 in0.0 mm 0.00 in0.0 mm
08:00 AM 53.4°F11.9°C 49.0°F9.4°C 85% 3.0 mph N4.8 kmh N 19.0 mph30.6 kmh 30.17 in1021.7 mb 0.00 in0.0 mm 0.00 in0.0 mm 0.00 in0.0 mm
07:50 AM 54.2°F12.3°C 50.4°F10.2°C 87% 4.0 mph NE6.4 kmh NE 19.0 mph30.6 kmh 30.17 in1021.7 mb 0.00 in0.0 mm 0.00 in0.0 mm 0.00 in0.0 mm
07:40 AM 54.9°F12.7°C 51.4°F10.8°C 88% 5.0 mph NNE8.0 kmh NNE 19.0 mph30.6 kmh 30.16 in1021.3 mb 0.00 in0.0 mm 0.00 in0.0 mm 0.00 in0.0 mm
07:30 AM 55.7°F13.2°C 52.2°F11.2°C 88% 2.0 mph N3.2 kmh N 19.0 mph30.6 kmh 30.15 in1021.0 mb 0.00 in0.0 mm 0.00 in0.0 mm 0.00 in0.0 mm
07:20 AM 55.8°F13.2°C 52.0°F11.1°C 87% 6.0 mph NE9.7 kmh NE 19.0 mph30.6 kmh 30.15 in1021.0 mb 0.00 in0.0 mm 0.00 in0.0 mm 0.00 in0.0 mm
07:10 AM 56.1°F13.4°C 52.9°F11.6°C 89% 3.0 mph NE4.8 kmh NE 19.0 mph30.6 kmh 30.13 in1020.3 mb 0.00 in0.0 mm 0.00 in0.0 mm 0.00 in0.0 mm
07:00 AM 56.1°F13.4°C 52.6°F11.4°C 88% 8.0 mph NNE12.9 kmh NNE 19.0 mph30.6 kmh 30.12 in1020.0 mb 0.00 in0.0 mm 0.00 in0.0 mm 0.00 in0.0 mm
06:50 AM 56.3°F13.5°C 52.5°F11.4°C 87% 4.0 mph NNE6.4 kmh NNE 19.0 mph30.6 kmh 30.11 in1019.6 mb 0.00 in0.0 mm 0.00 in0.0 mm 0.00 in0.0 mm
06:40 AM 56.4°F13.6°C 52.9°F11.6°C 88% 9.0 mph NE14.5 kmh NE 19.0 mph30.6 kmh 30.10 in1019.3 mb 0.00 in0.0 mm 0.00 in0.0 mm 0.00 in0.0 mm
06:30 AM 56.7°F13.7°C 52.9°F11.6°C 87% 4.0 mph NE6.4 kmh NE 19.0 mph30.6 kmh 30.09 in1019.0 mb 0.00 in0.0 mm 0.00 in0.0 mm 0.00 in0.0 mm
06:20 AM 57.0°F13.9°C 53.5°F11.9°C 88% 4.0 mph NE6.4 kmh NE 19.0 mph30.6 kmh 30.09 in1019.0 mb 0.00 in0.0 mm 0.00 in0.0 mm 0.00 in0.0 mm
06:10 AM 57.3°F14.1°C 54.2°F12.3°C 89% 8.0 mph NE12.9 kmh NE 19.0 mph30.6 kmh 30.09 in1019.0 mb 0.00 in0.0 mm 0.00 in0.0 mm 0.00 in0.0 mm
06:00 AM 57.6°F14.2°C 54.7°F12.6°C 90% 7.0 mph SE11.3 kmh SE 19.0 mph30.6 kmh 30.09 in1019.0 mb 0.00 in0.0 mm 0.00 in0.0 mm 0.00 in0.0 mm
05:50 AM 57.7°F14.3°C 55.1°F12.8°C 91% 8.0 mph NE12.9 kmh NE 19.0 mph30.6 kmh 30.09 in1019.0 mb 0.00 in0.0 mm 0.00 in0.0 mm 0.00 in0.0 mm
05:40 AM 57.9°F14.4°C 55.3°F12.9°C 91% 4.0 mph NE6.4 kmh NE 19.0 mph30.6 kmh 30.08 in1018.6 mb 0.00 in0.0 mm 0.00 in0.0 mm 0.00 in0.0 mm
05:30 AM 58.4°F14.7°C 55.5°F13.1°C 90% 6.0 mph NNE9.7 kmh NNE 19.0 mph30.6 kmh 30.07 in1018.3 mb 0.00 in0.0 mm 0.00 in0.0 mm 0.00 in0.0 mm
05:20 AM 59.0°F15.0°C 55.8°F13.2°C 89% 7.0 mph NNW11.3 kmh NNW 17.0 mph27.4 kmh 30.06 in1017.9 mb 0.00 in0.0 mm 0.00 in0.0 mm 0.00 in0.0 mm
05:10 AM 60.1°F15.6°C 57.5°F14.2°C 91% 9.0 mph NE14.5 kmh NE 16.0 mph25.7 kmh 30.06 in1017.9 mb 0.00 in0.0 mm 0.00 in0.0 mm 0.00 in0.0 mm
05:00 AM 61.1°F16.2°C 59.1°F15.1°C 93% 6.0 mph SE9.7 kmh SE 16.0 mph25.7 kmh 30.06 in1017.9 mb 0.00 in0.0 mm 0.00 in0.0 mm 0.00 in0.0 mm
04:50 AM 62.5°F16.9°C 61.0°F16.1°C 95% 6.0 mph N9.7 kmh N 13.0 mph20.9 kmh 30.06 in1017.9 mb 0.00 in0.0 mm 0.00 in0.0 mm 0.00 in0.0 mm
04:40 AM 62.8°F17.1°C 61.6°F16.4°C 96% 7.0 mph E11.3 kmh E 12.0 mph19.3 kmh 30.05 in1017.6 mb 0.00 in0.0 mm 0.00 in0.0 mm 0.00 in0.0 mm
04:30 AM 62.9°F17.2°C 61.7°F16.5°C 96% 2.0 mph NNE3.2 kmh NNE 12.0 mph19.3 kmh 30.05 in1017.6 mb 0.00 in0.0 mm 0.00 in0.0 mm 0.00 in0.0 mm
04:20 AM 63.0°F17.2°C 61.8°F16.6°C 96% 4.0 mph NE6.4 kmh NE 12.0 mph19.3 kmh 30.04 in1017.3 mb 0.00 in0.0 mm 0.00 in0.0 mm 0.00 in0.0 mm
04:10 AM 63.1°F17.3°C 61.9°F16.6°C 96% 6.0 mph NNE9.7 kmh NNE 12.0 mph19.3 kmh 30.03 in1016.9 mb 0.00 in0.0 mm 0.00 in0.0 mm 0.00 in0.0 mm
04:00 AM 63.2°F17.3°C 62.0°F16.7°C 96% 4.0 mph E6.4 kmh E 12.0 mph19.3 kmh 30.04 in1017.3 mb 0.00 in0.0 mm 0.00 in0.0 mm 0.00 in0.0 mm
03:50 AM 63.3°F17.4°C 62.4°F16.9°C 97% 4.0 mph N6.4 kmh N 12.0 mph19.3 kmh 30.04 in1017.3 mb 0.00 in0.0 mm 0.00 in0.0 mm 0.00 in0.0 mm
03:40 AM 63.7°F17.6°C 62.8°F17.1°C 97% 3.0 mph N4.8 kmh N 12.0 mph19.3 kmh 30.04 in1017.3 mb 0.00 in0.0 mm 0.00 in0.0 mm 0.00 in0.0 mm
03:30 AM 64.1°F17.8°C 63.2°F17.3°C 97% 2.0 mph NW3.2 kmh NW 12.0 mph19.3 kmh 30.04 in1017.3 mb 0.00 in0.0 mm 0.00 in0.0 mm 0.00 in0.0 mm
03:20 AM 64.6°F18.1°C 63.4°F17.4°C 96% 3.0 mph NNE4.8 kmh NNE 12.0 mph19.3 kmh 30.04 in1017.3 mb 0.00 in0.0 mm 0.00 in0.0 mm 0.00 in0.0 mm
03:10 AM 65.6°F18.7°C 64.7°F18.2°C 97% 3.0 mph WSW4.8 kmh WSW 12.0 mph19.3 kmh 30.03 in1016.9 mb 0.00 in0.0 mm 0.00 in0.0 mm 0.00 in0.0 mm
03:00 AM 66.6°F19.2°C 66.0°F18.9°C 98% 3.0 mph N4.8 kmh N 8.0 mph12.9 kmh 30.03 in1016.9 mb 0.00 in0.0 mm 0.00 in0.0 mm 0.00 in0.0 mm
02:50 AM 67.0°F19.4°C 66.7°F19.3°C 99% 3.0 mph NNE4.8 kmh NNE 7.0 mph11.3 kmh 30.03 in1016.9 mb 0.00 in0.0 mm 0.00 in0.0 mm 0.00 in0.0 mm
02:40 AM 67.1°F19.5°C 66.8°F19.3°C 99% Calm Calm 5.0 mph8.0 kmh 30.03 in1016.9 mb 0.00 in0.0 mm 0.00 in0.0 mm 0.00 in0.0 mm
02:30 AM 67.1°F19.5°C 66.8°F19.3°C 99% Calm Calm 5.0 mph8.0 kmh 30.03 in1016.9 mb 0.00 in0.0 mm 0.00 in0.0 mm 0.00 in0.0 mm
02:20 AM 67.2°F19.6°C 66.9°F19.4°C 99% Calm Calm 5.0 mph8.0 kmh 30.04 in1017.3 mb 0.00 in0.0 mm 0.00 in0.0 mm 0.00 in0.0 mm
02:10 AM 67.2°F19.6°C 66.9°F19.4°C 99% Calm Calm 5.0 mph8.0 kmh 30.04 in1017.3 mb 0.00 in0.0 mm 0.00 in0.0 mm 0.00 in0.0 mm
02:00 AM 67.2°F19.6°C 66.9°F19.4°C 99% Calm Calm 5.0 mph8.0 kmh 30.04 in1017.3 mb 0.00 in0.0 mm 0.00 in0.0 mm 0.00 in0.0 mm
01:50 AM 67.2°F19.6°C 66.9°F19.4°C 99% Calm Calm 5.0 mph8.0 kmh 30.04 in1017.3 mb 0.00 in0.0 mm 0.00 in0.0 mm 0.00 in0.0 mm
01:40 AM 67.2°F19.6°C 66.9°F19.4°C 99% Calm Calm 5.0 mph8.0 kmh 30.04 in1017.3 mb 0.00 in0.0 mm 0.00 in0.0 mm 0.00 in0.0 mm
01:30 AM 67.1°F19.5°C 66.8°F19.3°C 99% Calm Calm 5.0 mph8.0 kmh 30.04 in1017.3 mb 0.00 in0.0 mm 0.00 in0.0 mm 0.00 in0.0 mm
01:20 AM 67.0°F19.4°C 66.7°F19.3°C 99% Calm Calm 5.0 mph8.0 kmh 30.04 in1017.3 mb 0.00 in0.0 mm 0.00 in0.0 mm 0.00 in0.0 mm
01:10 AM 66.8°F19.3°C 66.5°F19.2°C 99% Calm Calm 5.0 mph8.0 kmh 30.04 in1017.3 mb 0.00 in0.0 mm 0.00 in0.0 mm 0.00 in0.0 mm
01:00 AM 66.9°F19.4°C 66.6°F19.2°C 99% Calm Calm 5.0 mph8.0 kmh 30.04 in1017.3 mb 0.00 in0.0 mm 0.00 in0.0 mm 0.00 in0.0 mm
12:50 AM 66.9°F19.4°C 66.6°F19.2°C 99% 1.0 mph S1.6 kmh S 5.0 mph8.0 kmh 30.05 in1017.6 mb 0.00 in0.0 mm 0.00 in0.0 mm 0.00 in0.0 mm
12:40 AM 67.0°F19.4°C 66.7°F19.3°C 99% 1.0 mph SSW1.6 kmh SSW 4.0 mph6.4 kmh 30.05 in1017.6 mb 0.00 in0.0 mm 0.00 in0.0 mm 0.00 in0.0 mm
12:30 AM 67.0°F19.4°C 66.7°F19.3°C 99% Calm Calm 4.0 mph6.4 kmh 30.06 in1017.9 mb 0.00 in0.0 mm 0.00 in0.0 mm 0.00 in0.0 mm
12:20 AM 66.9°F19.4°C 66.6°F19.2°C 99% 1.0 mph SSW1.6 kmh SSW 3.0 mph4.8 kmh 30.06 in1017.9 mb 0.00 in0.0 mm 0.00 in0.0 mm 0.00 in0.0 mm
12:10 AM 66.8°F19.3°C 66.5°F19.2°C 99% 1.0 mph SW1.6 kmh SW 3.0 mph4.8 kmh 30.06 in1017.9 mb 0.00 in0.0 mm 0.00 in0.0 mm 0.00 in0.0 mm
12:00 AM 66.7°F19.3°C 66.4°F19.1°C 99% 1.0 mph S1.6 kmh S 1.0 mph1.6 kmh 30.06 in1017.9 mb 0.00 in0.0 mm 0.00 in0.0 mm 0.00 in0.0 mm